KTPL/TPL METAR and TAF weather

Enter ICAO airport designator
Station Type Date Time Source
KTPL METAR 2021/05/11 00:51 UTC NOAA

KTPL 110051Z AUTO 36012KT 10SM OVC007 16/16 A2994 RMK AO2 SLP134 T01610156


Station Type Date Time Source
KTPL Decoded METAR 2021/05/11 00:51 UTC NOAA

Temple, Draughon-Miller Central Texas Regional Airport, TX, United States (KTPL) 31-09N 097-24W
May 10, 2021 - 08:51 PM EDT / 2021.05.11 0051 UTC
Wind: from the N (360 degrees) at 14 MPH (12 KT):0
Visibility: 10 mile(s):0
Sky conditions: overcast
Temperature: 61.0 F (16.1 C)
Dew Point: 60.1 F (15.6 C)
Relative Humidity: 96%
Pressure (altimeter): 29.94 in. Hg (1013 hPa)
ob: KTPL 110051Z AUTO 36012KT 10SM OVC007 16/16 A2994 RMK AO2 SLP134 T01610156
cycle: 1

Station Type Date Time Source
KTPL TAF UTC NOAA

Error!

Example: see airport list